Time;durP1;ratioP1;P1;durP2;ratioP2;P2;SDS_P1;SDS_P2;PMS_P1;PMS_P2;Temp;Humidity;BMP_temperature;BMP_pressure;BME280_temperature;BME280_humidity;BME280_pressure;Samples;Min_cycle;Max_cycle;Signal;HPM_P1;HPM_P2
2021/10/29 00:02:13;;;;;;;71.53;33.27;;;;;;;;;;4991287;28;20058;-73
2021/10/29 00:04:38;;;;;;;69.43;32.93;;;;;;;;;;4989797;28;20342;-71
2021/10/29 00:07:04;;;;;;;68.40;32.83;;;;;;;;;;5006179;28;20033;-72
2021/10/29 00:09:32;;;;;;;71.47;33.90;;;;;;;;;;4989565;28;20057;-72
2021/10/29 00:12:01;;;;;;;71.57;34.07;;;;;;;;;;5005918;28;20030;-71
2021/10/29 00:14:31;;;;;;;72.13;35.33;;;;;;;;;;4990703;28;20120;-71
2021/10/29 00:16:57;;;;;;;80.57;36.00;;;;;;;;;;4989377;28;20034;-73
2021/10/29 00:19:23;;;;;;;72.30;35.40;;;;;;;;;;4988988;28;20105;-72
2021/10/29 00:21:48;;;;;;;71.73;35.13;;;;;;;;;;4989621;28;20462;-72
2021/10/29 00:24:14;;;;;;;71.17;33.97;;;;;;;;;;4990679;28;20038;-71
2021/10/29 00:26:40;;;;;;;67.07;33.87;;;;;;;;;;4990409;28;20037;-72
2021/10/29 00:29:06;;;;;;;77.67;33.30;;;;;;;;;;4990620;28;20149;-71
2021/10/29 00:31:31;;;;;;;65.27;31.73;;;;;;;;;;4989334;28;20034;-71
2021/10/29 00:33:57;;;;;;;71.77;32.37;;;;;;;;;;5005629;28;20061;-72
2021/10/29 00:36:23;;;;;;;60.80;30.27;;;;;;;;;;4989208;28;20034;-71
2021/10/29 00:38:49;;;;;;;71.23;32.23;;;;;;;;;;4989080;28;20022;-71
2021/10/29 00:41:14;;;;;;;76.47;34.40;;;;;;;;;;4990684;28;20109;-71
2021/10/29 00:43:40;;;;;;;65.90;34.20;;;;;;;;;;4989734;28;20375;-71
2021/10/29 00:46:06;;;;;;;67.43;31.33;;;;;;;;;;4990591;28;20026;-73
2021/10/29 00:48:31;;;;;;;70.30;32.20;;;;;;;;;;5004999;28;20030;-71
2021/10/29 00:50:57;;;;;;;75.83;33.83;;;;;;;;;;4990377;28;20034;-72
2021/10/29 00:53:24;;;;;;;70.33;31.47;;;;;;;;;;4989976;28;20053;-71
2021/10/29 00:55:50;;;;;;;73.67;31.70;;;;;;;;;;4988859;28;20493;-72
2021/10/29 00:58:16;;;;;;;69.60;31.90;;;;;;;;;;4988925;28;20041;-72
2021/10/29 01:00:41;;;;;;;66.27;32.33;;;;;;;;;;4990046;28;20034;-71
2021/10/29 01:03:07;;;;;;;64.17;32.13;;;;;;;;;;4990354;28;20030;-72
2021/10/29 01:05:33;;;;;;;69.07;32.90;;;;;;;;;;4989985;28;20038;-72
2021/10/29 01:07:59;;;;;;;69.77;32.77;;;;;;;;;;4990227;28;20065;-72
2021/10/29 01:10:30;;;;;;;72.87;32.67;;;;;;;;;;4989906;28;20030;-71
2021/10/29 01:12:56;;;;;;;63.00;30.67;;;;;;;;;;4990299;28;20031;-72
2021/10/29 01:15:24;;;;;;;68.87;32.00;;;;;;;;;;4989023;28;20466;-72
2021/10/29 01:17:49;;;;;;;66.97;31.37;;;;;;;;;;5005434;28;20485;-72
2021/10/29 01:20:22;;;;;;;67.23;31.57;;;;;;;;;;4989302;28;20022;-72
2021/10/29 01:22:48;;;;;;;;;;;;;;;;;;4990779;28;20034;-73
2021/10/29 01:25:13;;;;;;;58.63;29.20;;;;;;;;;;4988865;28;19957;-71
2021/10/29 01:27:40;;;;;;;70.50;31.00;;;;;;;;;;4990306;28;20031;-71
2021/10/29 01:30:07;;;;;;;66.67;31.73;;;;;;;;;;4989984;28;20037;-70
2021/10/29 01:32:32;;;;;;;70.73;34.17;;;;;;;;;;4989842;28;20061;-72
2021/10/29 01:34:59;;;;;;;67.90;31.40;;;;;;;;;;4990759;28;20034;-72
2021/10/29 01:37:25;;;;;;;74.17;32.77;;;;;;;;;;4990258;28;20034;-70
2021/10/29 01:39:51;;;;;;;61.03;31.27;;;;;;;;;;4990502;28;20125;-71
2021/10/29 01:42:16;;;;;;;61.50;31.13;;;;;;;;;;4988611;28;20082;-72
2021/10/29 01:44:43;;;;;;;68.13;31.37;;;;;;;;;;4989754;28;20394;-71
2021/10/29 01:47:09;;;;;;;66.43;32.47;;;;;;;;;;4988802;28;20038;-72
2021/10/29 01:49:35;;;;;;;71.53;32.23;;;;;;;;;;4989792;28;20030;-71
2021/10/29 01:52:01;;;;;;;67.50;32.30;;;;;;;;;;4988370;28;20401;-72
2021/10/29 01:54:26;;;;;;;66.60;32.93;;;;;;;;;;4991150;28;20037;-72
2021/10/29 01:56:52;;;;;;;71.90;35.20;;;;;;;;;;4992366;28;20080;-72
2021/10/29 01:59:18;;;;;;;68.13;31.23;;;;;;;;;;4993491;28;20026;-70
2021/10/29 02:01:43;;;;;;;71.03;33.40;;;;;;;;;;4993166;28;20034;-72
2021/10/29 02:04:09;;;;;;;70.97;35.57;;;;;;;;;;4993354;28;20042;-73
2021/10/29 02:06:34;;;;;;;75.33;32.17;;;;;;;;;;4993218;28;20490;-72
2021/10/29 02:09:00;;;;;;;64.43;32.73;;;;;;;;;;4993262;28;20030;-70
2021/10/29 02:11:25;;;;;;;57.80;31.07;;;;;;;;;;5008212;28;20602;-71
2021/10/29 02:13:51;;;;;;;64.93;31.83;;;;;;;;;;4992886;28;20101;-71
2021/10/29 02:16:17;;;;;;;68.10;32.47;;;;;;;;;;4991915;28;20026;-71
2021/10/29 02:18:42;;;;;;;66.30;33.23;;;;;;;;;;4991431;28;20037;-71
2021/10/29 02:21:07;;;;;;;62.80;32.83;;;;;;;;;;4992146;28;20033;-71
2021/10/29 02:23:33;;;;;;;73.17;32.80;;;;;;;;;;4991652;28;20031;-71
2021/10/29 02:25:59;;;;;;;73.40;33.80;;;;;;;;;;4994165;28;20631;-71
2021/10/29 02:28:24;;;;;;;72.53;33.67;;;;;;;;;;5009281;28;20390;-72
2021/10/29 02:30:51;;;;;;;74.27;33.03;;;;;;;;;;4994237;28;20036;-72
2021/10/29 02:33:19;;;;;;;75.37;34.77;;;;;;;;;;4992663;28;20050;-72
2021/10/29 02:35:45;;;;;;;64.23;34.17;;;;;;;;;;4993116;28;20045;-70
2021/10/29 02:38:11;;;;;;;67.77;33.37;;;;;;;;;;5008355;28;20033;-71
2021/10/29 02:40:37;;;;;;;71.37;34.77;;;;;;;;;;4992610;28;20031;-71
2021/10/29 02:43:03;;;;;;;60.90;32.13;;;;;;;;;;5007469;28;20030;-71
2021/10/29 02:45:29;;;;;;;65.90;30.63;;;;;;;;;;4991027;28;20112;-73
2021/10/29 02:47:54;;;;;;;69.57;32.97;;;;;;;;;;4991163;28;20454;-71
2021/10/29 02:50:21;;;;;;;66.03;34.03;;;;;;;;;;4992528;28;20033;-72
2021/10/29 02:52:47;;;;;;;75.30;35.00;;;;;;;;;;4992387;28;20104;-71
2021/10/29 02:55:13;;;;;;;71.83;33.60;;;;;;;;;;4991026;28;20042;-72
2021/10/29 02:57:39;;;;;;;70.20;35.47;;;;;;;;;;4992311;28;20092;-72
2021/10/29 03:00:07;;;;;;;72.50;33.60;;;;;;;;;;4990814;28;20027;-70
2021/10/29 03:02:33;;;;;;;68.97;33.43;;;;;;;;;;5006971;28;20030;-70
2021/10/29 03:05:00;;;;;;;71.00;33.50;;;;;;;;;;4990590;28;20401;-72
2021/10/29 03:07:25;;;;;;;70.27;33.67;;;;;;;;;;4990297;28;20474;-72
2021/10/29 03:09:52;;;;;;;81.40;34.07;;;;;;;;;;4991923;28;20037;-72
2021/10/29 03:12:18;;;;;;;67.37;32.33;;;;;;;;;;4992130;28;20393;-73
2021/10/29 03:14:43;;;;;;;73.00;33.57;;;;;;;;;;4990417;28;20034;-72
2021/10/29 03:17:09;;;;;;;63.33;32.30;;;;;;;;;;4992141;28;20034;-71
2021/10/29 03:19:35;;;;;;;74.47;35.90;;;;;;;;;;4990238;28;20026;-71
2021/10/29 03:22:01;;;;;;;70.23;33.27;;;;;;;;;;5006920;28;20065;-70
2021/10/29 03:24:26;;;;;;;68.10;33.53;;;;;;;;;;4992131;28;20034;-71
2021/10/29 03:26:52;;;;;;;77.83;35.33;;;;;;;;;;5006613;28;20124;-71
2021/10/29 03:29:17;;;;;;;72.50;34.73;;;;;;;;;;5007231;28;20168;-71
2021/10/29 03:31:43;;;;;;;63.73;32.60;;;;;;;;;;4991422;28;20042;-72
2021/10/29 03:34:09;;;;;;;73.40;34.17;;;;;;;;;;4990363;28;20065;-72
2021/10/29 03:36:34;;;;;;;67.23;33.40;;;;;;;;;;4991634;28;20023;-72
2021/10/29 03:39:03;;;;;;;64.97;31.27;;;;;;;;;;5006478;28;20031;-72
2021/10/29 03:41:32;;;;;;;66.30;34.17;;;;;;;;;;4991734;28;20037;-71
2021/10/29 03:44:17;;;;;;;61.93;32.07;;;;;;;;;;4990612;28;20113;-72
2021/10/29 03:46:47;;;;;;;68.47;32.53;;;;;;;;;;4990973;28;20471;-71
2021/10/29 03:51:57;;;;;;;79.22;37.63;;;;;;;;;;4992443;28;20037;-72
2021/10/29 03:54:30;;;;;;;59.53;30.90;;;;;;;;;;4992458;28;20032;-70
2021/10/29 03:57:09;;;;;;;69.33;34.20;;;;;;;;;;4989960;28;20030;-70
2021/10/29 03:59:35;;;;;;;62.50;31.70;;;;;;;;;;4989707;28;20030;-72
2021/10/29 04:02:02;;;;;;;63.13;31.73;;;;;;;;;;5006041;28;20449;-70
2021/10/29 04:04:28;;;;;;;65.47;33.60;;;;;;;;;;4990973;28;20019;-70
2021/10/29 04:06:54;;;;;;;71.43;33.50;;;;;;;;;;4990858;28;20033;-72
2021/10/29 04:09:20;;;;;;;71.00;33.50;;;;;;;;;;4991269;28;20130;-70
2021/10/29 04:11:45;;;;;;;70.30;32.17;;;;;;;;;;4990883;28;20521;-71
2021/10/29 04:14:12;;;;;;;62.03;32.43;;;;;;;;;;5005952;28;20030;-71
2021/10/29 04:16:39;;;;;;;69.13;33.43;;;;;;;;;;4990936;28;20022;-71
2021/10/29 04:19:06;;;;;;;69.27;33.23;;;;;;;;;;4989463;28;20026;-71
2021/10/29 04:21:32;;;;;;;66.23;32.23;;;;;;;;;;4989504;28;20085;-70
2021/10/29 04:23:57;;;;;;;69.70;32.80;;;;;;;;;;4990937;28;20026;-70
2021/10/29 04:26:23;;;;;;;69.00;34.37;;;;;;;;;;4990692;28;20393;-71
2021/10/29 04:28:54;;;;;;;68.53;33.33;;;;;;;;;;5005381;28;20018;-71
2021/10/29 04:31:23;;;;;;;70.10;32.97;;;;;;;;;;4989168;28;20058;-72
2021/10/29 04:33:49;;;;;;;69.57;35.53;;;;;;;;;;4990296;28;20045;-70
2021/10/29 04:36:15;;;;;;;72.87;33.87;;;;;;;;;;4990748;28;20561;-71
2021/10/29 04:38:41;;;;;;;74.77;35.83;;;;;;;;;;4990165;28;20037;-71
2021/10/29 04:41:07;;;;;;;74.57;33.57;;;;;;;;;;4990458;28;20579;-71
2021/10/29 04:43:33;;;;;;;65.73;32.73;;;;;;;;;;4990598;28;20124;-73
2021/10/29 04:45:58;;;;;;;77.63;34.27;;;;;;;;;;4990327;28;20097;-73
2021/10/29 04:48:24;;;;;;;79.93;34.90;;;;;;;;;;4989033;28;20030;-71
2021/10/29 04:50:50;;;;;;;76.87;36.13;;;;;;;;;;4988830;28;20037;-72
2021/10/29 04:53:15;;;;;;;75.13;35.00;;;;;;;;;;4990268;28;20041;-72
2021/10/29 04:55:41;;;;;;;75.43;33.80;;;;;;;;;;4987588;28;20026;-72
2021/10/29 04:58:08;;;;;;;70.90;33.33;;;;;;;;;;5002246;28;20042;-71
2021/10/29 05:00:35;;;;;;;76.23;35.40;;;;;;;;;;4996107;28;20038;-72
2021/10/29 05:03:01;;;;;;;74.83;33.97;;;;;;;;;;4980056;28;20029;-71
2021/10/29 05:05:27;;;;;;;80.57;36.07;;;;;;;;;;4971764;28;20034;-71
2021/10/29 05:07:54;;;;;;;82.87;37.10;;;;;;;;;;4984215;28;20034;-73
2021/10/29 05:10:19;;;;;;;92.80;39.50;;;;;;;;;;4988245;28;20108;-71
2021/10/29 05:12:48;;;;;;;78.53;37.03;;;;;;;;;;4979255;28;20120;-72
2021/10/29 05:15:16;;;;;;;78.40;37.03;;;;;;;;;;4985164;28;20029;-74
2021/10/29 05:17:43;;;;;;;79.37;35.63;;;;;;;;;;5003452;28;20444;-70
2021/10/29 05:20:09;;;;;;;94.03;37.30;;;;;;;;;;5004165;28;20054;-72
2021/10/29 05:22:34;;;;;;;72.27;35.70;;;;;;;;;;4989214;28;20057;-70
2021/10/29 05:25:00;;;;;;;74.67;33.67;;;;;;;;;;4984150;28;20076;-71
2021/10/29 05:27:25;;;;;;;76.67;35.30;;;;;;;;;;4977891;28;20486;-72
2021/10/29 05:29:51;;;;;;;98.33;41.73;;;;;;;;;;4982138;28;20030;-71
2021/10/29 05:32:17;;;;;;;79.80;37.87;;;;;;;;;;4983748;28;20062;-71
2021/10/29 05:34:43;;;;;;;86.40;37.07;;;;;;;;;;5002041;28;20038;-73
2021/10/29 05:37:08;;;;;;;88.80;36.60;;;;;;;;;;4985297;28;20027;-70
2021/10/29 05:39:34;;;;;;;76.93;35.97;;;;;;;;;;4983977;28;20649;-69
2021/10/29 05:42:00;;;;;;;73.40;35.97;;;;;;;;;;4987639;28;20023;-71
2021/10/29 05:44:26;;;;;;;79.77;36.50;;;;;;;;;;5006949;28;20097;-72
2021/10/29 05:46:52;;;;;;;87.57;38.43;;;;;;;;;;4993568;28;20038;-69
2021/10/29 05:49:18;;;;;;;84.47;38.43;;;;;;;;;;4990056;28;20045;-69
2021/10/29 05:51:47;;;;;;;79.70;35.10;;;;;;;;;;4988825;28;20029;-71
2021/10/29 05:57:03;;;;;;;87.47;37.57;;;;;;;;;;4982777;28;20133;-69
2021/10/29 05:59:33;;;;;;;88.43;38.67;;;;;;;;;;5008000;28;20386;-71
2021/10/29 06:01:59;;;;;;;82.57;36.63;;;;;;;;;;4997104;28;20501;-71
2021/10/29 06:04:24;;;;;;;81.30;36.17;;;;;;;;;;5006817;28;20030;-72
2021/10/29 06:06:52;;;;;;;86.97;36.80;;;;;;;;;;5006739;28;20023;-70
2021/10/29 06:09:18;;;;;;;77.73;37.60;;;;;;;;;;4991979;28;20029;-71
2021/10/29 06:11:43;;;;;;;93.80;38.13;;;;;;;;;;5001947;28;20491;-71
2021/10/29 06:14:09;;;;;;;81.27;37.00;;;;;;;;;;4991663;28;20037;-70
2021/10/29 06:16:35;;;;;;;80.90;36.70;;;;;;;;;;5004219;28;20521;-69
2021/10/29 06:19:00;;;;;;;84.10;36.60;;;;;;;;;;4990571;28;20030;-70
2021/10/29 06:21:36;;;;;;;88.90;36.00;;;;;;;;;;4993406;28;20065;-72
2021/10/29 06:24:09;;;;;;;89.20;39.20;;;;;;;;;;5004012;28;20038;-72
2021/10/29 06:26:46;;;;;;;97.73;41.83;;;;;;;;;;4985358;28;20088;-70
2021/10/29 06:29:12;;;;;;;92.37;36.70;;;;;;;;;;5005315;28;20022;-70
2021/10/29 06:31:39;;;;;;;94.33;38.97;;;;;;;;;;4991727;28;20482;-70
2021/10/29 06:34:05;;;;;;;96.47;38.37;;;;;;;;;;4990691;28;20049;-69
2021/10/29 06:36:31;;;;;;;105.63;40.37;;;;;;;;;;4996259;28;20112;-69
2021/10/29 06:39:01;;;;;;;107.60;38.40;;;;;;;;;;5004430;28;20431;-71
2021/10/29 06:41:26;;;;;;;94.53;38.80;;;;;;;;;;4986486;28;20023;-72
2021/10/29 06:44:15;;;;;;;102.63;38.70;;;;;;;;;;5005954;28;20094;-71
2021/10/29 06:59:11;;;;;;;94.83;37.53;;;;;;;;;;4990414;28;20037;-71
2021/10/29 07:41:17;;;;;;;100.07;37.97;;;;;;;;;;4991084;28;20045;-71
2021/10/29 07:43:51;;;;;;;88.57;37.70;;;;;;;;;;4988735;28;20026;-71
2021/10/29 07:46:16;;;;;;;93.40;37.27;;;;;;;;;;4988163;28;20398;-71
2021/10/29 07:48:44;;;;;;;102.80;39.87;;;;;;;;;;4985878;28;20030;-70
2021/10/29 07:51:10;;;;;;;94.77;39.60;;;;;;;;;;4989891;28;20026;-70
2021/10/29 07:53:35;;;;;;;89.17;39.03;;;;;;;;;;5004583;28;20456;-71
2021/10/29 07:56:04;;;;;;;89.10;39.07;;;;;;;;;;4976874;28;20038;-72
2021/10/29 07:58:31;;;;;;;97.03;39.60;;;;;;;;;;4988819;28;20034;-73
2021/10/29 08:00:58;;;;;;;82.97;35.97;;;;;;;;;;4986362;28;20094;-73
2021/10/29 08:03:23;;;;;;;99.73;42.87;;;;;;;;;;4978004;28;20477;-70
2021/10/29 08:05:50;;;;;;;91.20;39.73;;;;;;;;;;5001255;28;20038;-71
2021/10/29 08:08:17;;;;;;;85.07;37.57;;;;;;;;;;5002283;28;20038;-71
2021/10/29 08:10:43;;;;;;;87.97;37.67;;;;;;;;;;5006245;28;20370;-72
2021/10/29 08:13:09;;;;;;;84.53;37.27;;;;;;;;;;5004691;28;20058;-72
2021/10/29 08:15:37;;;;;;;93.90;37.10;;;;;;;;;;4991006;28;20058;-72
2021/10/29 08:18:05;;;;;;;93.17;38.83;;;;;;;;;;4988022;28;20037;-71
2021/10/29 08:20:31;;;;;;;106.10;38.73;;;;;;;;;;4989431;28;20030;-71
2021/10/29 08:22:57;;;;;;;90.60;36.87;;;;;;;;;;4982451;28;20041;-72
2021/10/29 08:25:23;;;;;;;84.47;36.93;;;;;;;;;;4989782;28;20033;-71
2021/10/29 08:27:49;;;;;;;89.47;37.40;;;;;;;;;;4990465;28;20034;-72
2021/10/29 08:30:16;;;;;;;87.93;40.50;;;;;;;;;;4990273;28;20080;-71
2021/10/29 08:32:46;;;;;;;87.53;39.97;;;;;;;;;;4987900;28;20042;-72
2021/10/29 08:35:12;;;;;;;87.87;37.20;;;;;;;;;;4977269;28;20204;-72
2021/10/29 08:37:40;;;;;;;81.80;34.97;;;;;;;;;;5003281;28;20129;-71
2021/10/29 08:40:09;;;;;;;78.07;34.47;;;;;;;;;;4990214;28;20030;-71
2021/10/29 08:42:34;;;;;;;84.77;38.07;;;;;;;;;;4989972;28;20041;-73
2021/10/29 08:45:06;;;;;;;85.70;37.80;;;;;;;;;;4976969;28;20035;-71
2021/10/29 08:47:37;;;;;;;107.15;41.08;;;;;;;;;;4985942;28;20093;-70
2021/10/29 08:50:09;;;;;;;84.63;38.03;;;;;;;;;;4978625;28;20790;-71
2021/10/29 08:52:39;;;;;;;87.00;39.47;;;;;;;;;;4995867;28;20037;-70
2021/10/29 08:55:08;;;;;;;83.40;40.08;;;;;;;;;;4988951;28;20069;-70
2021/10/29 08:57:35;;;;;;;90.90;39.47;;;;;;;;;;4986551;28;20390;-72
2021/10/29 09:00:05;;;;;;;86.83;38.93;;;;;;;;;;4986808;28;20030;-71
2021/10/29 09:02:34;;;;;;;89.23;39.17;;;;;;;;;;4990870;28;20535;-71
2021/10/29 09:10:59;;;;;;;87.13;39.27;;;;;;;;;;4990738;28;20513;-70
2021/10/29 09:32:33;;;;;;;92.20;41.73;;;;;;;;;;4982384;28;20053;-71
2021/10/29 09:35:03;;;;;;;85.80;40.70;;;;;;;;;;4985223;28;20034;-71
2021/10/29 09:37:36;;;;;;;102.37;41.10;;;;;;;;;;4984169;28;20525;-72
2021/10/29 09:40:13;;;;;;;91.60;41.90;;;;;;;;;;4988155;28;20034;-72
2021/10/29 09:42:40;;;;;;;96.73;42.20;;;;;;;;;;5004583;28;20033;-72
2021/10/29 09:45:32;;;;;;;107.20;43.00;;;;;;;;;;4969321;28;20037;-71
2021/10/29 09:48:13;;;;;;;92.53;40.43;;;;;;;;;;4986867;28;20030;-70
2021/10/29 09:50:48;;;;;;;92.97;44.20;;;;;;;;;;4987100;28;20034;-71
2021/10/29 09:58:45;;;;;;;99.90;43.87;;;;;;;;;;4984436;28;20057;-72
2021/10/29 10:01:13;;;;;;;112.77;45.43;;;;;;;;;;5002626;28;20046;-71
2021/10/29 10:03:40;;;;;;;95.73;44.87;;;;;;;;;;4988081;28;20018;-70
2021/10/29 10:06:06;;;;;;;89.57;44.33;;;;;;;;;;4986059;28;20034;-70
2021/10/29 10:08:33;;;;;;;100.67;44.47;;;;;;;;;;5003936;28;20034;-71
2021/10/29 10:11:00;;;;;;;93.43;45.97;;;;;;;;;;4994609;28;20034;-70
2021/10/29 10:13:26;;;;;;;91.83;45.90;;;;;;;;;;4986900;28;20034;-72
2021/10/29 10:15:58;;;;;;;100.77;44.03;;;;;;;;;;5008583;28;20150;-73
2021/10/29 10:18:25;;;;;;;93.10;43.38;;;;;;;;;;5007821;28;20092;-70
2021/10/29 10:20:56;;;;;;;94.00;44.33;;;;;;;;;;4990221;28;20045;-70
2021/10/29 10:23:33;;;;;;;115.97;45.08;;;;;;;;;;4992285;28;20447;-69
2021/10/29 10:43:06;;;;;;;100.27;45.90;;;;;;;;;;4991353;28;20113;-71
2021/10/29 10:45:40;;;;;;;95.57;44.60;;;;;;;;;;4990388;28;20355;-71
2021/10/29 10:48:11;;;;;;;95.77;43.17;;;;;;;;;;4989712;28;20034;-71
2021/10/29 10:50:41;;;;;;;93.80;44.50;;;;;;;;;;4989763;28;20385;-72
2021/10/29 10:53:18;;;;;;;86.97;43.57;;;;;;;;;;4989375;28;20018;-70
2021/10/29 10:58:48;;;;;;;82.87;42.20;;;;;;;;;;4992599;28;20026;-71
2021/10/29 11:12:23;;;;;;;98.03;43.70;;;;;;;;;;4991394;28;20100;-71
2021/10/29 11:15:23;;;;;;;69.70;37.67;;;;;;;;;;4992734;28;20034;-73
2021/10/29 11:18:16;;;;;;;72.00;35.27;;;;;;;;;;5007319;28;20038;-73
2021/10/29 11:20:50;;;;;;;79.23;37.00;;;;;;;;;;4990233;28;20038;-74
2021/10/29 11:23:26;;;;;;;87.37;40.30;;;;;;;;;;5008164;28;20549;-71
2021/10/29 11:26:20;;;;;;;78.90;39.80;;;;;;;;;;5008035;28;20022;-72
2021/10/29 11:28:51;;;;;;;67.97;34.70;;;;;;;;;;4991694;28;20018;-72
2021/10/29 11:31:26;;;;;;;70.43;35.97;;;;;;;;;;5003828;28;20478;-71
2021/10/29 11:33:55;;;;;;;58.67;30.90;;;;;;;;;;4991149;28;20050;-71
2021/10/29 11:36:26;;;;;;;53.97;29.53;;;;;;;;;;4990072;28;20029;-73
2021/10/29 11:38:53;;;;;;;53.70;26.93;;;;;;;;;;5006324;28;20031;-74
2021/10/29 11:41:31;;;;;;;57.10;27.63;;;;;;;;;;5006773;28;20256;-72
2021/10/29 11:44:13;;;;;;;51.53;27.27;;;;;;;;;;4990713;28;20030;-73
2021/10/29 11:46:42;;;;;;;50.33;25.90;;;;;;;;;;5006283;28;20049;-73
2021/10/29 11:49:11;;;;;;;51.65;26.13;;;;;;;;;;4989572;28;20525;-72
2021/10/29 11:51:39;;;;;;;62.53;28.15;;;;;;;;;;5006389;28;20038;-70
2021/10/29 11:54:28;;;;;;;55.42;28.67;;;;;;;;;;4990822;28;20093;-72
2021/10/29 11:57:08;;;;;;;57.53;26.55;;;;;;;;;;4990883;28;20418;-74
2021/10/29 12:07:36;;;;;;;46.65;24.77;;;;;;;;;;4989042;28;20053;-73
2021/10/29 12:10:08;;;;;;;47.15;25.83;;;;;;;;;;5002940;28;20030;-71
2021/10/29 12:12:38;;;;;;;51.22;26.65;;;;;;;;;;4989126;28;20033;-72
2021/10/29 12:15:17;;;;;;;52.80;25.25;;;;;;;;;;5005213;28;20034;-71
2021/10/29 12:20:44;;;;;;;53.10;25.52;;;;;;;;;;4990521;28;20061;-71
2021/10/29 12:23:28;;;;;;;43.95;22.95;;;;;;;;;;5005730;28;20026;-72
2021/10/29 12:26:00;;;;;;;42.67;22.20;;;;;;;;;;4990115;28;20069;-72
2021/10/29 12:28:32;;;;;;;46.40;24.20;;;;;;;;;;4988581;28;20081;-73
2021/10/29 12:31:11;;;;;;;41.03;23.60;;;;;;;;;;5002647;28;20084;-70
2021/10/29 13:01:30;;;;;;;40.88;21.35;;;;;;;;;;4989722;28;20053;-73
2021/10/29 13:04:22;;;;;;;49.80;22.35;;;;;;;;;;4988100;28;20030;-72
2021/10/29 13:06:52;;;;;;;42.78;21.75;;;;;;;;;;4977264;28;20053;-73
2021/10/29 13:09:24;;;;;;;44.58;20.98;;;;;;;;;;5002007;28;20014;-72
2021/10/29 13:11:58;;;;;;;41.42;22.52;;;;;;;;;;4987739;28;20019;-73
2021/10/29 13:14:45;;;;;;;39.78;22.60;;;;;;;;;;5003365;28;20052;-73
2021/10/29 13:17:14;;;;;;;41.60;21.65;;;;;;;;;;4986939;28;20081;-72
2021/10/29 13:23:06;;;;;;;42.15;20.92;;;;;;;;;;4989467;28;20537;-72
2021/10/29 13:55:50;;;;;;;42.70;23.17;;;;;;;;;;4992637;28;20421;-73
2021/10/29 13:58:33;;;;;;;39.80;21.88;;;;;;;;;;5001816;28;20093;-72
2021/10/29 14:30:32;;;;;;;43.50;22.25;;;;;;;;;;4992651;28;20144;-72
2021/10/29 14:33:12;;;;;;;38.28;21.98;;;;;;;;;;4991503;28;20053;-72
2021/10/29 14:35:46;;;;;;;46.55;22.70;;;;;;;;;;5005275;28;20088;-73
2021/10/29 14:38:30;;;;;;;45.65;23.42;;;;;;;;;;5007096;28;20465;-72
2021/10/29 14:41:12;;;;;;;44.72;22.08;;;;;;;;;;5003998;28;20038;-72
2021/10/29 14:43:48;;;;;;;;;;;;;;;;;;4990728;28;20113;-72
2021/10/29 14:46:27;;;;;;;41.28;23.00;;;;;;;;;;4990122;28;19920;-74
2021/10/29 14:49:10;;;;;;;55.50;25.85;;;;;;;;;;4991635;28;20068;-73
2021/10/29 15:02:52;;;;;;;53.45;25.10;;;;;;;;;;4990047;28;20097;-72
2021/10/29 15:16:09;;;;;;;55.60;26.65;;;;;;;;;;4992502;28;20121;-72
2021/10/29 15:26:56;;;;;;;54.78;29.58;;;;;;;;;;4992046;28;20187;-73
2021/10/29 15:29:30;;;;;;;67.53;31.00;;;;;;;;;;4990188;28;20026;-72
2021/10/29 15:45:36;;;;;;;114.15;31.90;;;;;;;;;;4980546;28;20362;-74
2021/10/29 15:48:25;;;;;;;88.78;31.00;;;;;;;;;;4990449;28;20046;-73
2021/10/29 15:50:50;;;;;;;61.65;29.63;;;;;;;;;;4991606;28;20034;-74
2021/10/29 15:53:16;;;;;;;82.60;30.15;;;;;;;;;;4991201;28;20040;-72
2021/10/29 15:55:58;;;;;;;80.05;29.48;;;;;;;;;;4990393;28;20450;-73
2021/10/29 16:03:53;;;;;;;70.20;29.38;;;;;;;;;;4991346;28;20357;-72
2021/10/29 16:17:15;;;;;;;73.72;27.75;;;;;;;;;;4990886;28;20057;-71
2021/10/29 16:19:45;;;;;;;62.00;26.50;;;;;;;;;;4990806;28;20513;-71
2021/10/29 16:22:27;;;;;;;63.75;26.05;;;;;;;;;;5006171;28;20500;-73
2021/10/29 16:27:19;;;;;;;60.67;27.83;;;;;;;;;;4991140;28;20323;-72
2021/10/29 16:29:49;;;;;;;65.87;29.17;;;;;;;;;;4990497;28;20096;-73
2021/10/29 16:32:17;;;;;;;82.07;32.67;;;;;;;;;;5005219;28;20033;-73
2021/10/29 16:34:43;;;;;;;78.97;30.03;;;;;;;;;;4990259;28;20193;-73
2021/10/29 16:37:10;;;;;;;74.07;29.20;;;;;;;;;;4990109;28;20492;-71
2021/10/29 16:39:36;;;;;;;58.60;28.30;;;;;;;;;;4990932;28;20130;-74
2021/10/29 16:42:01;;;;;;;70.20;27.23;;;;;;;;;;5005827;28;20147;-75
2021/10/29 16:44:31;;;;;;;96.70;28.60;;;;;;;;;;4990411;28;20030;-75
2021/10/29 16:46:57;;;;;;;66.80;27.73;;;;;;;;;;4989318;28;20026;-74
2021/10/29 16:49:23;;;;;;;74.00;27.70;;;;;;;;;;5006331;28;20030;-74
2021/10/29 16:51:49;;;;;;;73.10;28.93;;;;;;;;;;4990333;28;20029;-75
2021/10/29 16:54:15;;;;;;;70.30;30.20;;;;;;;;;;4988816;28;20030;-75
2021/10/29 16:56:41;;;;;;;60.53;28.87;;;;;;;;;;4990442;28;20041;-75
2021/10/29 16:59:07;;;;;;;57.33;27.10;;;;;;;;;;4990121;28;20030;-74
2021/10/29 17:01:34;;;;;;;55.33;25.60;;;;;;;;;;4988874;28;20537;-75
2021/10/29 17:03:59;;;;;;;62.13;27.37;;;;;;;;;;4989632;28;20022;-75
2021/10/29 17:06:26;;;;;;;61.87;27.23;;;;;;;;;;4990129;28;20026;-75
2021/10/29 17:08:52;;;;;;;56.63;27.73;;;;;;;;;;4988313;28;20029;-75
2021/10/29 17:11:18;;;;;;;59.57;27.17;;;;;;;;;;4989142;28;20386;-74
2021/10/29 17:13:44;;;;;;;63.63;28.17;;;;;;;;;;4990147;28;20061;-75
2021/10/29 17:16:11;;;;;;;73.73;36.53;;;;;;;;;;5004856;28;20482;-75
2021/10/29 17:18:36;;;;;;;55.27;29.90;;;;;;;;;;4988474;28;20030;-74
2021/10/29 17:21:03;;;;;;;55.60;29.57;;;;;;;;;;4988729;28;20374;-75
2021/10/29 17:23:31;;;;;;;64.97;29.60;;;;;;;;;;4989898;28;20036;-75
2021/10/29 17:25:57;;;;;;;60.27;28.47;;;;;;;;;;4991093;28;20125;-74
2021/10/29 17:28:23;;;;;;;69.77;29.73;;;;;;;;;;5008652;28;20035;-74
2021/10/29 17:30:49;;;;;;;52.87;27.23;;;;;;;;;;4992904;28;20022;-75
2021/10/29 17:33:14;;;;;;;55.73;25.90;;;;;;;;;;4994501;28;20209;-74
2021/10/29 17:35:39;;;;;;;65.27;27.33;;;;;;;;;;4994146;28;20038;-75
2021/10/29 17:38:05;;;;;;;56.03;28.40;;;;;;;;;;4996211;28;20177;-74
2021/10/29 17:40:35;;;;;;;56.63;27.93;;;;;;;;;;5009678;28;20069;-75
2021/10/29 17:43:01;;;;;;;62.90;28.67;;;;;;;;;;5008278;28;20599;-74
2021/10/29 17:45:27;;;;;;;63.60;28.27;;;;;;;;;;5008958;28;20035;-75
2021/10/29 17:47:52;;;;;;;66.03;27.60;;;;;;;;;;4992489;28;20172;-75
2021/10/29 17:50:18;;;;;;;69.67;28.17;;;;;;;;;;4993322;28;20084;-75
2021/10/29 17:52:46;;;;;;;63.10;28.60;;;;;;;;;;4993746;28;20030;-75
2021/10/29 17:55:14;;;;;;;59.23;27.83;;;;;;;;;;4993568;28;20044;-74
2021/10/29 17:57:40;;;;;;;67.43;29.30;;;;;;;;;;4994519;28;20033;-74
2021/10/29 18:00:08;;;;;;;55.57;28.40;;;;;;;;;;4991986;28;20104;-75
2021/10/29 18:02:34;;;;;;;94.90;44.20;;;;;;;;;;4993553;28;20636;-75
2021/10/29 18:04:59;;;;;;;70.87;28.73;;;;;;;;;;4993311;28;20113;-75
2021/10/29 18:07:28;;;;;;;65.30;29.47;;;;;;;;;;4992468;28;20120;-75
2021/10/29 18:09:55;;;;;;;51.30;26.63;;;;;;;;;;5008756;28;20022;-73
2021/10/29 18:12:22;;;;;;;61.07;29.23;;;;;;;;;;5008508;28;20098;-74
2021/10/29 18:14:48;;;;;;;60.13;29.57;;;;;;;;;;5008521;28;20038;-74
2021/10/29 18:17:15;;;;;;;57.63;27.33;;;;;;;;;;5007832;28;20038;-74
2021/10/29 18:19:41;;;;;;;81.63;32.07;;;;;;;;;;4992945;28;20026;-74
2021/10/29 18:22:07;;;;;;;57.80;30.23;;;;;;;;;;4993012;28;20093;-76
2021/10/29 18:24:35;;;;;;;67.30;31.07;;;;;;;;;;4993455;28;20109;-76
2021/10/29 18:27:01;;;;;;;68.63;34.13;;;;;;;;;;5008059;28;20026;-74
2021/10/29 18:29:28;;;;;;;68.97;31.23;;;;;;;;;;4993179;28;20029;-75
2021/10/29 18:31:53;;;;;;;73.70;33.83;;;;;;;;;;4991626;28;20671;-75
2021/10/29 18:34:19;;;;;;;91.10;34.53;;;;;;;;;;5008301;28;20046;-74
2021/10/29 18:36:45;;;;;;;75.00;34.67;;;;;;;;;;4991853;28;20030;-74
2021/10/29 18:39:10;;;;;;;81.30;34.10;;;;;;;;;;5007551;28;20550;-75
2021/10/29 18:41:36;;;;;;;68.27;32.67;;;;;;;;;;4992966;28;20062;-75
2021/10/29 18:44:05;;;;;;;76.53;35.13;;;;;;;;;;5007893;28;20077;-75
2021/10/29 18:46:31;;;;;;;79.57;36.93;;;;;;;;;;5007748;28;20470;-75
2021/10/29 18:48:56;;;;;;;82.53;35.73;;;;;;;;;;4991187;28;20081;-76
2021/10/29 18:51:23;;;;;;;75.37;33.93;;;;;;;;;;4992517;28;20030;-75
2021/10/29 18:53:49;;;;;;;77.60;34.50;;;;;;;;;;5007545;28;20030;-74
2021/10/29 18:56:16;;;;;;;69.30;36.07;;;;;;;;;;4990883;28;20037;-74
2021/10/29 18:58:42;;;;;;;68.33;33.43;;;;;;;;;;5007515;28;20165;-75
2021/10/29 19:01:08;;;;;;;75.17;35.97;;;;;;;;;;5007599;28;20050;-75
2021/10/29 19:03:34;;;;;;;89.67;38.53;;;;;;;;;;4992450;28;20033;-73
2021/10/29 19:06:01;;;;;;;79.47;38.10;;;;;;;;;;4990833;28;20206;-75
2021/10/29 19:08:27;;;;;;;78.57;37.63;;;;;;;;;;4990925;28;20389;-75